createdAt,value
2023-02-25T00:00:48.265Z,4.31
2023-02-25T00:02:06.351Z,4.32
2023-02-25T00:02:48.357Z,4.32
2023-02-25T00:03:48.433Z,4.22
2023-02-25T00:04:48.141Z,4.23
2023-02-25T00:05:48.109Z,4.19
2023-02-25T00:06:48.067Z,4.22
2023-02-25T00:07:48.010Z,4.22
2023-02-25T00:08:47.980Z,4.28
2023-02-25T00:09:47.950Z,4.32
2023-02-25T00:10:47.944Z,4.26
2023-02-25T00:11:47.906Z,4.23
2023-02-25T00:12:47.881Z,4.24
2023-02-25T00:13:47.891Z,4.3
2023-02-25T00:14:47.773Z,4.24
2023-02-25T00:15:47.755Z,4.24
2023-02-25T00:16:47.942Z,4.26
2023-02-25T00:17:47.698Z,4.3
2023-02-25T00:18:47.628Z,4.24
2023-02-25T00:19:47.602Z,4.28
2023-02-25T00:20:47.575Z,4.26
2023-02-25T00:21:47.561Z,4.31
2023-02-25T00:22:47.524Z,4.34
2023-02-25T00:23:47.485Z,4.28
2023-02-25T00:24:47.426Z,4.3
2023-02-25T00:25:47.406Z,4.28
2023-02-25T00:26:47.446Z,4.31
2023-02-25T00:27:47.332Z,4.24
2023-02-25T00:28:47.295Z,4.3
2023-02-25T00:29:47.263Z,4.28
2023-02-25T00:30:47.740Z,4.31
2023-02-25T00:31:47.996Z,4.31
2023-02-25T00:32:47.392Z,4.34
2023-02-25T00:33:47.279Z,4.3
2023-02-25T00:34:47.086Z,4.22
2023-02-25T00:35:47.081Z,4.37
2023-02-25T00:36:47.226Z,4.3
2023-02-25T00:37:47.007Z,4.34
2023-02-25T00:38:46.953Z,4.34
2023-02-25T00:39:47.299Z,4.28
2023-02-25T00:40:46.908Z,4.31
2023-02-25T00:41:46.596Z,4.3
2023-02-25T00:42:46.842Z,4.3
2023-02-25T00:43:46.797Z,4.32
2023-02-25T00:44:46.762Z,4.31
2023-02-25T00:45:46.718Z,4.3
2023-02-25T00:46:46.786Z,4.3
2023-02-25T00:47:46.665Z,4.34
2023-02-25T00:48:46.364Z,4.3
2023-02-25T00:49:46.603Z,4.34
2023-02-25T00:50:46.533Z,4.31
2023-02-25T00:51:46.509Z,4.31
2023-02-25T00:52:46.463Z,4.28
2023-02-25T00:53:46.448Z,4.28
2023-02-25T00:54:46.394Z,4.31
2023-02-25T00:55:46.396Z,4.31
2023-02-25T00:56:46.348Z,4.3
2023-02-25T00:57:46.300Z,4.34
2023-02-25T00:58:46.285Z,4.32
2023-02-25T00:59:46.227Z,4.31
2023-02-25T01:00:56.408Z,4.24
2023-02-25T01:01:46.412Z,4.3
2023-02-25T01:02:46.273Z,4.3
2023-02-25T01:03:46.519Z,4.31
2023-02-25T01:04:46.572Z,4.31
2023-02-25T01:05:46.182Z,4.32
2023-02-25T01:06:46.058Z,4.32
2023-02-25T01:07:45.956Z,4.3
2023-02-25T01:08:45.907Z,4.31
2023-02-25T01:09:45.958Z,4.31
2023-02-25T01:10:45.836Z,4.34
2023-02-25T01:11:45.833Z,4.34
2023-02-25T01:12:45.772Z,4.32
2023-02-25T01:13:45.882Z,4.31
2023-02-25T01:14:45.724Z,4.28
2023-02-25T01:15:45.828Z,4.32
2023-02-25T01:16:45.634Z,4.37
2023-02-25T01:17:45.609Z,4.28
2023-02-25T01:18:45.564Z,4.37
2023-02-25T01:19:45.322Z,4.31
2023-02-25T01:20:45.575Z,4.37
2023-02-25T01:21:45.281Z,4.44
2023-02-25T01:22:45.440Z,4.44
2023-02-25T01:23:45.386Z,4.38
2023-02-25T01:24:46.327Z,4.4
2023-02-25T01:25:45.404Z,4.41
2023-02-25T01:26:45.299Z,4.41
2023-02-25T01:27:45.268Z,4.4
2023-02-25T01:28:45.268Z,4.48
2023-02-25T01:29:45.241Z,4.48
2023-02-25T01:30:45.285Z,4.41
2023-02-25T01:31:46.044Z,4.49
2023-02-25T01:32:45.692Z,4.41
2023-02-25T01:33:45.227Z,4.44
2023-02-25T01:34:45.007Z,4.45
2023-02-25T01:35:44.977Z,4.37
2023-02-25T01:36:44.939Z,4.38
2023-02-25T01:37:44.935Z,4.37
2023-02-25T01:38:44.875Z,4.41
2023-02-25T01:39:44.845Z,4.38
2023-02-25T01:40:44.822Z,4.4
2023-02-25T01:41:44.797Z,4.37
2023-02-25T01:42:44.744Z,4.45
2023-02-25T01:43:44.725Z,4.45
2023-02-25T01:44:44.673Z,4.41
2023-02-25T01:45:44.632Z,4.44
2023-02-25T01:46:44.893Z,4.41
2023-02-25T01:47:44.596Z,4.38
2023-02-25T01:48:44.529Z,4.45
2023-02-25T01:49:44.494Z,4.41
2023-02-25T01:50:44.476Z,4.41
2023-02-25T01:51:44.427Z,4.49
2023-02-25T01:52:44.406Z,4.45
2023-02-25T01:53:44.381Z,4.45
2023-02-25T01:54:44.078Z,4.48
2023-02-25T01:55:44.289Z,4.45
2023-02-25T01:56:44.271Z,4.48
2023-02-25T01:57:44.259Z,4.52
2023-02-25T01:58:44.183Z,4.41
2023-02-25T01:59:44.176Z,4.49
2023-02-25T02:00:44.304Z,4.5
2023-02-25T02:01:44.080Z,4.41
2023-02-25T02:02:44.217Z,4.49
2023-02-25T02:03:44.012Z,4.41
2023-02-25T02:04:43.980Z,4.42
2023-02-25T02:05:43.979Z,4.42
2023-02-25T02:06:44.084Z,4.44
2023-02-25T02:07:43.873Z,4.44
2023-02-25T02:08:43.846Z,4.41
2023-02-25T02:09:43.865Z,4.41
2023-02-25T02:10:43.769Z,4.44
2023-02-25T02:11:43.748Z,4.49
2023-02-25T02:12:43.719Z,4.44
2023-02-25T02:13:43.724Z,4.49
2023-02-25T02:14:43.646Z,4.5
2023-02-25T02:15:43.657Z,4.44
2023-02-25T02:16:43.852Z,4.45
2023-02-25T02:17:43.534Z,4.44
2023-02-25T02:18:43.526Z,4.4
2023-02-25T02:19:43.465Z,4.45
2023-02-25T02:20:43.430Z,4.45
2023-02-25T02:21:43.396Z,4.44
2023-02-25T02:22:43.370Z,4.42
2023-02-25T02:23:43.360Z,4.41
2023-02-25T02:24:43.306Z,4.48
2023-02-25T02:25:43.279Z,4.45
2023-02-25T02:26:43.236Z,4.4
2023-02-25T02:27:43.196Z,4.44
2023-02-25T02:28:43.171Z,4.38
2023-02-25T02:29:43.177Z,4.31
2023-02-25T02:30:43.188Z,4.3
2023-02-25T02:31:43.521Z,4.14
2023-02-25T02:32:43.414Z,4.06
2023-02-25T02:33:42.983Z,4.06
2023-02-25T02:34:42.971Z,4.01
2023-02-25T02:35:42.915Z,3.98
2023-02-25T02:36:42.877Z,4.02
2023-02-25T02:37:42.843Z,3.99
2023-02-25T02:38:42.827Z,4.02
2023-02-25T02:39:42.771Z,3.88
2023-02-25T02:40:42.548Z,3.88
2023-02-25T02:41:42.732Z,3.84
2023-02-25T02:42:42.681Z,3.88
2023-02-25T02:43:42.665Z,3.86
2023-02-25T02:44:42.606Z,3.92
2023-02-25T02:45:42.796Z,3.88
2023-02-25T02:46:42.527Z,3.91
2023-02-25T02:47:42.522Z,3.78
2023-02-25T02:48:42.453Z,3.87
2023-02-25T02:49:42.429Z,3.8
2023-02-25T02:50:42.409Z,3.8
2023-02-25T02:51:42.371Z,3.92
2023-02-25T02:52:42.329Z,3.83
2023-02-25T02:53:42.289Z,3.78
2023-02-25T02:54:42.273Z,3.83
2023-02-25T02:55:42.251Z,3.83
2023-02-25T02:56:42.170Z,3.76
2023-02-25T02:57:42.163Z,3.87
2023-02-25T02:58:42.144Z,3.73
2023-02-25T02:59:42.312Z,3.8
2023-02-25T03:00:42.219Z,3.86
2023-02-25T03:01:42.036Z,3.77
2023-02-25T03:02:41.961Z,3.86
2023-02-25T03:03:42.267Z,3.84
2023-02-25T03:04:41.892Z,3.8
2023-02-25T03:05:41.861Z,3.8
2023-02-25T03:06:41.856Z,3.86
2023-02-25T03:07:41.791Z,3.94
2023-02-25T03:08:41.754Z,3.94
2023-02-25T03:09:41.718Z,3.94
2023-02-25T03:10:41.696Z,3.92
2023-02-25T03:11:41.678Z,3.91
2023-02-25T03:12:41.610Z,3.96
2023-02-25T03:13:41.615Z,3.96
2023-02-25T03:14:41.538Z,3.98
2023-02-25T03:15:41.550Z,3.98
2023-02-25T03:16:41.698Z,3.92
2023-02-25T03:17:41.464Z,4.01
2023-02-25T03:18:43.874Z,3.92
2023-02-25T03:19:41.380Z,3.96
2023-02-25T03:20:41.349Z,3.95
2023-02-25T03:21:41.303Z,4.02
2023-02-25T03:22:41.328Z,3.94
2023-02-25T03:23:41.242Z,4.04
2023-02-25T03:24:41.204Z,3.95
2023-02-25T03:25:41.164Z,4.04
2023-02-25T03:26:41.140Z,4.04
2023-02-25T03:27:41.157Z,4.04
2023-02-25T03:28:41.061Z,4.06
2023-02-25T03:29:41.046Z,3.95
2023-02-25T03:30:41.346Z,4.02
2023-02-25T03:31:41.295Z,3.91
2023-02-25T03:32:42.486Z,4.05
2023-02-25T03:33:41.036Z,3.91
2023-02-25T03:34:40.877Z,3.98
2023-02-25T03:35:40.824Z,4.04
2023-02-25T03:36:40.796Z,4.01
2023-02-25T03:37:40.757Z,4.02
2023-02-25T03:38:40.739Z,4.06
2023-02-25T03:39:40.698Z,4.08
2023-02-25T03:40:40.651Z,4.1
2023-02-25T03:41:40.618Z,4.1
2023-02-25T03:42:40.590Z,4.08
2023-02-25T03:43:40.542Z,4.13
2023-02-25T03:44:40.507Z,4.08
2023-02-25T03:45:40.624Z,4.12
2023-02-25T03:46:40.459Z,4.12
2023-02-25T03:47:40.455Z,4.13
2023-02-25T03:48:40.395Z,4.17
2023-02-25T03:49:40.419Z,4.1
2023-02-25T03:50:40.323Z,4.22
2023-02-25T03:51:40.407Z,4.24
2023-02-25T03:52:40.242Z,4.19
2023-02-25T03:53:40.338Z,4.17
2023-02-25T03:54:40.187Z,4.19
2023-02-25T03:55:40.124Z,4.24
2023-02-25T03:56:40.091Z,4.28
2023-02-25T03:57:40.061Z,4.28
2023-02-25T03:58:40.022Z,4.19
2023-02-25T03:59:40.119Z,4.23
2023-02-25T04:00:39.992Z,4.24
2023-02-25T04:01:39.947Z,4.3
2023-02-25T04:02:40.131Z,4.23
2023-02-25T04:03:39.877Z,4.32
2023-02-25T04:04:39.966Z,4.2
2023-02-25T04:05:39.813Z,4.32
2023-02-25T04:06:39.753Z,4.24
2023-02-25T04:07:39.711Z,4.24
2023-02-25T04:08:39.674Z,4.31
2023-02-25T04:09:39.666Z,4.3
2023-02-25T04:10:39.657Z,4.3
2023-02-25T04:11:39.328Z,4.34
2023-02-25T04:12:39.614Z,4.3
2023-02-25T04:13:39.511Z,4.34
2023-02-25T04:14:39.477Z,4.3
2023-02-25T04:15:39.594Z,4.32
2023-02-25T04:16:39.417Z,4.32
2023-02-25T04:17:39.425Z,4.28
2023-02-25T04:18:39.342Z,4.3
2023-02-25T04:19:39.286Z,4.32
2023-02-25T04:20:39.068Z,4.31
2023-02-25T04:21:39.286Z,4.3
2023-02-25T04:22:39.470Z,4.31
2023-02-25T04:23:39.270Z,4.32
2023-02-25T04:24:39.126Z,4.28
2023-02-25T04:25:39.093Z,4.26
2023-02-25T04:26:39.112Z,4.28
2023-02-25T04:27:39.050Z,4.31
2023-02-25T04:28:39.026Z,4.3
2023-02-25T04:29:38.993Z,4.3
2023-02-25T04:30:39.406Z,4.31
2023-02-25T04:31:39.340Z,4.31
2023-02-25T04:32:39.032Z,4.26
2023-02-25T04:33:38.833Z,4.26
2023-02-25T04:34:38.793Z,4.26
2023-02-25T04:35:38.768Z,4.23
2023-02-25T04:36:38.720Z,4.3
2023-02-25T04:37:38.705Z,4.31
2023-02-25T04:38:38.645Z,4.34
2023-02-25T04:39:38.615Z,4.35
2023-02-25T04:40:38.570Z,4.34
2023-02-25T04:41:38.548Z,4.26
2023-02-25T04:42:38.527Z,4.31
2023-02-25T04:43:38.475Z,4.31
2023-02-25T04:44:38.426Z,4.26
2023-02-25T04:45:38.718Z,4.31
2023-02-25T04:46:38.593Z,4.31
2023-02-25T04:47:38.390Z,4.3
2023-02-25T04:48:38.294Z,4.3
2023-02-25T04:49:38.284Z,4.31
2023-02-25T04:50:38.218Z,4.35
2023-02-25T04:51:38.206Z,4.34
2023-02-25T04:52:38.152Z,4.19
2023-02-25T04:53:38.213Z,4.26
2023-02-25T04:54:38.076Z,4.2
2023-02-25T04:55:38.056Z,4.3
2023-02-25T04:56:38.022Z,4.28
2023-02-25T04:57:37.988Z,4.23
2023-02-25T04:58:38.012Z,4.23
2023-02-25T04:59:37.914Z,4.2
2023-02-25T05:00:37.871Z,4.23
2023-02-25T05:01:38.033Z,4.22
2023-02-25T05:02:37.814Z,4.23
2023-02-25T05:03:37.771Z,4.2
2023-02-25T05:04:38.016Z,4.23
2023-02-25T05:05:37.736Z,4.23
2023-02-25T05:06:37.672Z,4.22
2023-02-25T05:07:37.632Z,4.2
2023-02-25T05:08:37.606Z,4.32
2023-02-25T05:09:37.590Z,4.24
2023-02-25T05:10:37.551Z,4.19
2023-02-25T05:11:37.500Z,4.3
2023-02-25T05:12:37.503Z,4.22
2023-02-25T05:13:37.439Z,4.24
2023-02-25T05:14:37.901Z,4.22
2023-02-25T05:15:37.115Z,4.19
2023-02-25T05:16:37.420Z,4.26
2023-02-25T05:17:37.344Z,4.28
2023-02-25T05:18:37.276Z,4.24
2023-02-25T05:19:37.250Z,4.32
2023-02-25T05:20:37.474Z,4.3
2023-02-25T05:21:37.177Z,4.32
2023-02-25T05:22:37.145Z,4.28
2023-02-25T05:23:36.884Z,4.2
2023-02-25T05:24:37.066Z,4.22
2023-02-25T05:25:36.796Z,4.16
2023-02-25T05:26:36.979Z,4.24
2023-02-25T05:27:36.981Z,4.16
2023-02-25T05:28:36.955Z,4.14
2023-02-25T05:29:37.048Z,4.22
2023-02-25T05:30:36.870Z,4.14
2023-02-25T05:31:37.273Z,4.23
2023-02-25T05:32:37.439Z,4.26
2023-02-25T05:33:36.760Z,4.23
2023-02-25T05:34:36.697Z,4.23
2023-02-25T05:35:36.674Z,4.19
2023-02-25T05:36:36.652Z,4.17
2023-02-25T05:37:36.394Z,4.19
2023-02-25T05:38:36.575Z,4.22
2023-02-25T05:39:36.554Z,4.16
2023-02-25T05:40:36.506Z,4.05
2023-02-25T05:41:36.488Z,4.12
2023-02-25T05:42:36.424Z,4.16
2023-02-25T05:43:36.394Z,4.17
2023-02-25T05:44:36.352Z,4.05
2023-02-25T05:45:36.323Z,4.17
2023-02-25T05:46:36.504Z,4.22
2023-02-25T05:47:36.283Z,4.14
2023-02-25T05:48:36.228Z,4.06
2023-02-25T05:49:36.196Z,4.2
2023-02-25T05:50:36.156Z,4.22
2023-02-25T05:51:36.110Z,4.22
2023-02-25T05:52:36.106Z,4.17
2023-02-25T05:53:36.076Z,4.16
2023-02-25T05:54:36.014Z,4.26
2023-02-25T05:55:35.977Z,4.2
2023-02-25T05:56:37.195Z,4.06
2023-02-25T05:57:35.964Z,4.19
2023-02-25T05:58:35.886Z,4.22
2023-02-25T05:59:35.832Z,4.2
2023-02-25T06:00:35.563Z,4.22
2023-02-25T06:01:35.774Z,4.1
2023-02-25T06:02:35.752Z,4.23
2023-02-25T06:03:35.829Z,4.19
2023-02-25T06:04:35.684Z,4.22
2023-02-25T06:05:35.665Z,4.17
2023-02-25T06:06:35.594Z,4.19
2023-02-25T06:07:35.574Z,4.14
2023-02-25T06:08:35.531Z,4.22
2023-02-25T06:09:35.267Z,4.22
2023-02-25T06:10:35.455Z,4.19
2023-02-25T06:11:35.450Z,4.22
2023-02-25T06:12:35.383Z,4.2
2023-02-25T06:13:35.441Z,4.2
2023-02-25T06:14:35.460Z,4.24
2023-02-25T06:15:35.293Z,4.19
2023-02-25T06:16:35.596Z,4.08
2023-02-25T06:17:35.214Z,4.19
2023-02-25T06:18:35.201Z,4.1
2023-02-25T06:19:35.144Z,4.19
2023-02-25T06:20:35.161Z,4.08
2023-02-25T06:21:35.094Z,4.05
2023-02-25T06:22:35.035Z,4.06
2023-02-25T06:23:34.997Z,4.01
2023-02-25T06:24:34.965Z,4.12
2023-02-25T06:25:34.957Z,4.13
2023-02-25T06:26:34.926Z,4.05
2023-02-25T06:27:34.874Z,4.06
2023-02-25T06:28:34.837Z,4.14
2023-02-25T06:29:34.843Z,4.04
2023-02-25T06:30:35.076Z,4.05
2023-02-25T06:31:34.769Z,4.05
2023-02-25T06:32:35.337Z,4.12
2023-02-25T06:33:34.709Z,4.23
2023-02-25T06:34:34.648Z,4.22
2023-02-25T06:35:34.583Z,4.16
2023-02-25T06:36:34.562Z,4.24
2023-02-25T06:37:34.666Z,4.19
2023-02-25T06:38:34.482Z,4.1
2023-02-25T06:39:34.448Z,4.1
2023-02-25T06:40:34.421Z,4.22
2023-02-25T06:41:34.401Z,4.2
2023-02-25T06:42:34.345Z,4.24
2023-02-25T06:43:34.333Z,4.2
2023-02-25T06:44:34.297Z,4.19
2023-02-25T06:45:34.279Z,4.3
2023-02-25T06:46:34.478Z,4.24
2023-02-25T06:47:34.166Z,4.24
2023-02-25T06:48:34.143Z,4.31
2023-02-25T06:49:34.110Z,4.16
2023-02-25T06:50:34.110Z,4.32
2023-02-25T06:51:34.037Z,4.32
2023-02-25T06:52:34.010Z,4.3
2023-02-25T06:53:33.981Z,4.35
2023-02-25T06:54:33.692Z,4.34
2023-02-25T06:55:33.684Z,4.3
2023-02-25T06:56:33.889Z,4.28
2023-02-25T06:57:33.845Z,4.31
2023-02-25T06:58:33.802Z,4.35
2023-02-25T06:59:33.769Z,4.3
2023-02-25T07:00:33.751Z,4.34
2023-02-25T07:01:33.869Z,4.28
2023-02-25T07:02:33.741Z,4.38
2023-02-25T07:03:33.646Z,4.28
2023-02-25T07:04:33.821Z,4.38
2023-02-25T07:05:33.582Z,4.28
2023-02-25T07:06:33.543Z,4.38
2023-02-25T07:07:33.503Z,4.38
2023-02-25T07:08:33.464Z,4.38
2023-02-25T07:09:33.411Z,4.34
2023-02-25T07:10:33.400Z,4.35
2023-02-25T07:11:33.340Z,4.28
2023-02-25T07:12:33.304Z,4.42
2023-02-25T07:13:33.294Z,4.38
2023-02-25T07:14:33.232Z,4.37
2023-02-25T07:15:33.271Z,4.35
2023-02-25T07:16:33.172Z,4.31
2023-02-25T07:17:33.177Z,4.35
2023-02-25T07:18:33.119Z,4.34
2023-02-25T07:19:33.062Z,4.32
2023-02-25T07:20:33.152Z,4.31
2023-02-25T07:21:32.993Z,4.41
2023-02-25T07:22:33.001Z,4.41
2023-02-25T07:23:32.957Z,4.4
2023-02-25T07:24:32.894Z,4.38
2023-02-25T07:25:33.185Z,4.38
2023-02-25T07:26:32.833Z,4.37
2023-02-25T07:27:32.807Z,4.4
2023-02-25T07:28:32.758Z,4.42
2023-02-25T07:29:32.770Z,4.41
2023-02-25T07:30:32.675Z,4.45
2023-02-25T07:31:33.808Z,4.49
2023-02-25T07:32:33.332Z,4.53
2023-02-25T07:33:32.613Z,4.56
2023-02-25T07:34:32.559Z,4.59
2023-02-25T07:35:32.526Z,4.66
2023-02-25T07:36:32.477Z,4.63
2023-02-25T07:37:32.471Z,4.6
2023-02-25T07:38:32.446Z,4.62
2023-02-25T07:39:32.372Z,4.58
2023-02-25T07:40:32.347Z,4.53
2023-02-25T07:41:32.350Z,4.63
2023-02-25T07:42:32.269Z,4.66
2023-02-25T07:43:32.250Z,4.66
2023-02-25T07:44:32.201Z,4.53
2023-02-25T07:45:32.203Z,4.56
2023-02-25T07:46:32.416Z,4.55
2023-02-25T07:47:32.124Z,4.44
2023-02-25T07:48:32.065Z,4.52
2023-02-25T07:49:32.055Z,4.5
2023-02-25T07:50:32.051Z,4.55
2023-02-25T07:51:32.073Z,4.53
2023-02-25T07:52:31.935Z,4.53
2023-02-25T07:53:31.901Z,4.63
2023-02-25T07:54:31.932Z,4.6
2023-02-25T07:55:31.899Z,4.59
2023-02-25T07:56:31.567Z,4.68
2023-02-25T07:57:31.774Z,4.63
2023-02-25T07:58:31.731Z,4.67
2023-02-25T07:59:31.704Z,4.63
2023-02-25T08:00:31.703Z,4.58
2023-02-25T08:01:31.754Z,4.6
2023-02-25T08:02:31.805Z,4.58
2023-02-25T08:03:31.353Z,4.59
2023-02-25T08:04:31.741Z,4.7
2023-02-25T08:05:31.574Z,4.68
2023-02-25T08:06:31.465Z,4.67
2023-02-25T08:07:32.564Z,4.74
2023-02-25T08:08:31.146Z,4.73
2023-02-25T08:09:31.354Z,4.8
2023-02-25T08:10:31.341Z,4.82
2023-02-25T08:11:31.626Z,4.84
2023-02-25T08:12:31.253Z,4.8
2023-02-25T08:13:31.219Z,4.93
2023-02-25T08:14:31.204Z,4.86
2023-02-25T08:15:31.158Z,4.96
2023-02-25T08:16:31.122Z,4.93
2023-02-25T08:17:31.117Z,5
2023-02-25T08:18:31.086Z,5
2023-02-25T08:19:31.018Z,4.97
2023-02-25T08:20:31.026Z,4.93
2023-02-25T08:21:31.457Z,4.89
2023-02-25T08:22:30.924Z,4.86
2023-02-25T08:23:30.886Z,4.9
2023-02-25T08:24:30.646Z,4.92
2023-02-25T08:25:30.868Z,4.89
2023-02-25T08:26:30.844Z,4.97
2023-02-25T08:27:30.774Z,5
2023-02-25T08:28:34.431Z,5.1
2023-02-25T08:29:30.682Z,5.14
2023-02-25T08:30:30.732Z,5.04
2023-02-25T08:31:31.932Z,5.15
2023-02-25T08:32:31.286Z,5.08
2023-02-25T08:33:30.601Z,5.29
2023-02-25T08:34:30.311Z,5.29
2023-02-25T08:35:30.492Z,5.29
2023-02-25T08:36:30.504Z,5.32
2023-02-25T08:37:30.470Z,5.35
2023-02-25T08:38:30.411Z,5.46
2023-02-25T08:39:30.375Z,5.47
2023-02-25T08:40:30.415Z,5.38
2023-02-25T08:41:30.752Z,5.48
2023-02-25T08:42:30.304Z,5.41
2023-02-25T08:43:29.990Z,5.44
2023-02-25T08:44:30.195Z,5.44
2023-02-25T08:45:30.157Z,5.3
2023-02-25T08:46:30.306Z,5.43
2023-02-25T08:47:30.107Z,5.36
2023-02-25T08:48:30.056Z,5.29
2023-02-25T08:49:30.054Z,5.28
2023-02-25T08:50:30.042Z,5.26
2023-02-25T08:51:30.344Z,5.28
2023-02-25T08:52:29.934Z,5.25
2023-02-25T08:53:29.921Z,5.23
2023-02-25T08:54:29.989Z,5.26
2023-02-25T08:55:29.852Z,5.23
2023-02-25T08:56:29.797Z,5.26
2023-02-25T08:57:29.762Z,5.21
2023-02-25T08:58:29.820Z,5.15
2023-02-25T08:59:29.695Z,5.23
2023-02-25T09:00:29.846Z,5.28
2023-02-25T09:01:30.421Z,5.29
2023-02-25T09:02:29.593Z,5.28
2023-02-25T09:03:29.579Z,5.23
2023-02-25T09:04:29.779Z,5.28
2023-02-25T09:05:29.534Z,5.29
2023-02-25T09:06:29.462Z,5.32
2023-02-25T09:07:29.420Z,5.47
2023-02-25T09:08:29.391Z,5.44
2023-02-25T09:09:29.399Z,5.43
2023-02-25T09:10:34.095Z,5.47
2023-02-25T09:11:29.813Z,5.47
2023-02-25T09:12:29.681Z,5.32
2023-02-25T09:13:29.226Z,5.3
2023-02-25T09:14:29.237Z,5.33
2023-02-25T09:15:29.167Z,5.29
2023-02-25T09:16:29.289Z,5.26
2023-02-25T09:17:29.114Z,5.28
2023-02-25T09:18:29.214Z,5.2
2023-02-25T09:19:29.053Z,5.1
2023-02-25T09:20:29.004Z,4.96
2023-02-25T09:21:29.419Z,4.67
2023-02-25T09:22:28.940Z,4.4
2023-02-25T09:23:28.907Z,4.02
2023-02-25T09:24:28.868Z,3.88
2023-02-25T09:25:28.862Z,3.7
2023-02-25T09:26:28.846Z,3.41
2023-02-25T09:27:28.831Z,3.32
2023-02-25T09:28:29.402Z,3.26
2023-02-25T09:29:28.716Z,3.25
2023-02-25T09:30:28.799Z,3.19
2023-02-25T09:31:30.088Z,3.34
2023-02-25T09:32:29.091Z,3.32
2023-02-25T09:33:28.564Z,3.42
2023-02-25T09:34:28.529Z,3.47
2023-02-25T09:35:28.509Z,3.5
2023-02-25T09:36:28.462Z,3.59
2023-02-25T09:37:28.447Z,3.73
2023-02-25T09:38:28.393Z,3.87
2023-02-25T09:39:28.362Z,3.88
2023-02-25T09:40:28.358Z,3.98
2023-02-25T09:41:28.658Z,4.04
2023-02-25T09:42:28.264Z,4.08
2023-02-25T09:43:28.223Z,4.05
2023-02-25T09:44:28.197Z,4.16
2023-02-25T09:45:28.167Z,4.24
2023-02-25T09:46:28.269Z,4.26
2023-02-25T09:47:28.344Z,4.28
2023-02-25T09:48:28.066Z,4.34
2023-02-25T09:49:28.025Z,4.31
2023-02-25T09:50:27.990Z,4.4
2023-02-25T09:51:28.640Z,4.41
2023-02-25T09:52:27.703Z,4.5
2023-02-25T09:53:27.954Z,4.55
2023-02-25T09:54:27.855Z,4.55
2023-02-25T09:55:27.823Z,4.52
2023-02-25T09:56:27.805Z,4.58
2023-02-25T09:57:27.784Z,4.58
2023-02-25T09:58:27.747Z,4.56
2023-02-25T09:59:27.700Z,4.67
2023-02-25T10:00:27.437Z,4.66
2023-02-25T10:01:28.039Z,4.68
2023-02-25T10:02:28.241Z,4.68
2023-02-25T10:03:27.813Z,4.77
2023-02-25T10:04:27.540Z,4.93
2023-02-25T10:05:27.366Z,4.92
2023-02-25T10:06:27.464Z,5.02
2023-02-25T10:07:27.436Z,5.07
2023-02-25T10:08:27.404Z,5.1
2023-02-25T10:09:27.393Z,5.21
2023-02-25T10:10:27.475Z,5.29
2023-02-25T10:11:28.016Z,5.46
2023-02-25T10:12:27.271Z,5.41
2023-02-25T10:13:27.258Z,5.38
2023-02-25T10:14:27.201Z,5.32
2023-02-25T10:15:27.256Z,5.05
2023-02-25T10:16:27.332Z,4.4
2023-02-25T10:17:27.103Z,3.76
2023-02-25T10:18:27.101Z,3.44
2023-02-25T10:19:27.036Z,3.1
2023-02-25T10:20:27.002Z,2.86
2023-02-25T10:21:27.801Z,2.67
2023-02-25T10:22:27.025Z,2.68
2023-02-25T10:23:26.964Z,2.56
2023-02-25T10:24:26.877Z,2.54
2023-02-25T10:25:26.854Z,2.54
2023-02-25T10:26:26.811Z,2.51
2023-02-25T10:27:26.778Z,2.47
2023-02-25T10:28:26.753Z,2.54
2023-02-25T10:29:26.715Z,2.61
2023-02-25T10:30:26.851Z,2.6
2023-02-25T10:31:28.424Z,2.64
2023-02-25T10:32:27.077Z,2.62
2023-02-25T10:33:26.553Z,2.71
2023-02-25T10:34:26.554Z,2.65
2023-02-25T10:35:26.506Z,2.6
2023-02-25T10:36:26.454Z,2.68
2023-02-25T10:37:26.416Z,2.65
2023-02-25T10:38:26.375Z,2.68
2023-02-25T10:39:26.110Z,2.67
2023-02-25T10:40:26.355Z,2.77
2023-02-25T10:41:26.959Z,2.79
2023-02-25T10:42:26.257Z,2.8
2023-02-25T10:43:26.202Z,2.8
2023-02-25T10:44:26.004Z,2.79
2023-02-25T10:45:25.960Z,2.87
2023-02-25T10:46:26.281Z,2.92
2023-02-25T10:47:26.062Z,2.98
2023-02-25T10:48:26.177Z,3.03
2023-02-25T10:49:26.011Z,3.05
2023-02-25T10:50:46.487Z,3.14
2023-02-25T10:51:26.822Z,3.14
2023-02-25T10:52:25.890Z,3.36
2023-02-25T10:53:28.416Z,3.31
2023-02-25T10:54:25.837Z,3.4
2023-02-25T10:55:25.786Z,3.51
2023-02-25T10:56:25.776Z,3.66
2023-02-25T10:57:25.811Z,3.56
2023-02-25T10:58:25.705Z,3.59
2023-02-25T10:59:25.726Z,3.81
2023-02-25T11:00:25.639Z,3.84
2023-02-25T11:01:26.609Z,3.99
2023-02-25T11:02:26.076Z,4.05
2023-02-25T11:03:25.511Z,4.13
2023-02-25T11:04:25.482Z,4.06
2023-02-25T11:05:25.462Z,4.3
2023-02-25T11:06:27.991Z,4.42
2023-02-25T11:07:25.377Z,4.7
2023-02-25T11:08:25.333Z,4.75
2023-02-25T11:09:25.368Z,4.89
2023-02-25T11:10:25.304Z,5.1
2023-02-25T11:11:26.388Z,5.26
2023-02-25T11:12:25.209Z,5.32
2023-02-25T11:13:25.202Z,5.39
2023-02-25T11:14:24.902Z,5.36
2023-02-25T11:15:45.944Z,5.51
2023-02-25T11:16:25.427Z,5.57
2023-02-25T11:17:25.126Z,5.57
2023-02-25T11:18:25.006Z,5.62
2023-02-25T11:19:24.972Z,5.5
2023-02-25T11:20:24.692Z,5.53
2023-02-25T11:21:25.532Z,5.62
2023-02-25T11:22:24.886Z,5.66
2023-02-25T11:23:26.556Z,5.72
2023-02-25T11:24:24.830Z,5.72
2023-02-25T11:25:24.783Z,5.75
2023-02-25T11:26:24.739Z,5.79
2023-02-25T11:27:24.716Z,5.91
2023-02-25T11:28:24.716Z,5.93
2023-02-25T11:29:24.662Z,5.73
2023-02-25T11:30:24.611Z,5.79
2023-02-25T11:31:25.933Z,5.76
2023-02-25T11:32:24.919Z,5.79
2023-02-25T11:33:24.552Z,5.68
2023-02-25T11:34:24.507Z,5.64
2023-02-25T11:35:24.491Z,5.69
2023-02-25T11:36:25.390Z,5.62
2023-02-25T11:37:24.374Z,5.56
2023-02-25T11:38:24.377Z,5.48
2023-02-25T11:39:24.369Z,5.41
2023-02-25T11:40:24.421Z,5.5
2023-02-25T11:41:25.435Z,5.44
2023-02-25T11:42:24.236Z,5.36
2023-02-25T11:44:24.185Z,5.64
2023-02-25T11:45:24.215Z,5.75
2023-02-25T11:46:25.181Z,5.75
2023-02-25T11:47:24.062Z,5.9
2023-02-25T11:48:24.043Z,6.04
2023-02-25T11:49:24.001Z,6.26
2023-02-25T11:50:23.697Z,6.22
2023-02-25T11:51:23.904Z,6.26
2023-02-25T11:52:23.875Z,6.22
2023-02-25T11:53:23.705Z,6.17
2023-02-25T11:54:23.849Z,6.14
2023-02-25T11:55:23.783Z,6.07
2023-02-25T11:56:24.617Z,6.04
2023-02-25T11:57:23.748Z,6.02
2023-02-25T11:58:23.723Z,6.07
2023-02-25T11:59:23.645Z,6.04
2023-02-25T12:00:23.660Z,6.04
2023-02-25T12:01:23.657Z,6.09
2023-02-25T12:02:23.548Z,6.08
2023-02-25T12:03:23.271Z,6.01
2023-02-25T12:04:23.490Z,5.94
2023-02-25T12:05:23.570Z,5.89
2023-02-25T12:06:24.222Z,5.91
2023-02-25T12:07:23.386Z,5.91
2023-02-25T12:08:23.355Z,5.91
2023-02-25T12:09:23.321Z,5.94
2023-02-25T12:10:23.487Z,5.99
2023-02-25T12:11:25.600Z,5.9
2023-02-25T12:12:23.221Z,6.05
2023-02-25T12:13:23.295Z,6.01
2023-02-25T12:14:23.158Z,6.05
2023-02-25T12:15:23.178Z,6.16
2023-02-25T12:16:23.447Z,6.07
2023-02-25T12:17:23.080Z,5.99
2023-02-25T12:18:23.038Z,6.05
2023-02-25T12:19:22.991Z,5.93
2023-02-25T12:20:22.723Z,5.94
2023-02-25T12:21:23.327Z,5.83
2023-02-25T12:22:22.900Z,5.86
2023-02-25T12:23:22.875Z,5.9
2023-02-25T12:24:22.830Z,5.94
2023-02-25T12:25:22.821Z,6.07
2023-02-25T12:26:22.791Z,6.12
2023-02-25T12:27:22.736Z,6.2
2023-02-25T12:28:22.704Z,6.24
2023-02-25T12:29:22.665Z,6.28
2023-02-25T12:30:22.633Z,6.46
2023-02-25T12:31:23.198Z,6.42
2023-02-25T12:32:22.860Z,6.49
2023-02-25T12:33:22.562Z,6.41
2023-02-25T12:34:25.259Z,6.3
2023-02-25T12:35:22.491Z,6.28
2023-02-25T12:36:22.442Z,6.17
2023-02-25T12:37:22.430Z,6.12
2023-02-25T12:38:22.407Z,6.07
2023-02-25T12:39:22.353Z,5.93
2023-02-25T12:40:22.327Z,5.93
2023-02-25T12:41:22.554Z,5.72
2023-02-25T12:42:22.269Z,5.62
2023-02-25T12:43:22.222Z,5.54
2023-02-25T12:44:23.375Z,5.48
2023-02-25T12:45:21.919Z,5.43
2023-02-25T12:46:22.112Z,5.35
2023-02-25T12:47:22.074Z,5.32
2023-02-25T12:48:22.042Z,5.29
2023-02-25T12:49:22.067Z,5.33
2023-02-25T12:50:21.974Z,5.43
2023-02-25T12:51:22.198Z,5.61
2023-02-25T12:52:22.363Z,5.66
2023-02-25T12:53:21.899Z,5.65
2023-02-25T12:54:21.851Z,5.76
2023-02-25T12:55:21.637Z,5.73
2023-02-25T12:56:21.776Z,5.73
2023-02-25T12:57:21.743Z,5.73
2023-02-25T12:58:21.746Z,5.76
2023-02-25T12:59:21.685Z,5.8
2023-02-25T13:00:21.643Z,5.84
2023-02-25T13:01:22.063Z,5.89
2023-02-25T13:02:21.604Z,5.99
2023-02-25T13:03:21.579Z,6.14
2023-02-25T13:04:21.573Z,6.24
2023-02-25T13:05:21.531Z,6.2
2023-02-25T13:06:21.465Z,6.17
2023-02-25T13:07:21.456Z,6.33
2023-02-25T13:08:21.392Z,6.26
2023-02-25T13:09:21.374Z,6.17
2023-02-25T13:10:21.322Z,6.12
2023-02-25T13:11:21.455Z,6.02
2023-02-25T13:12:21.259Z,6.08
2023-02-25T13:13:21.220Z,6.09
2023-02-25T13:14:21.260Z,5.93
2023-02-25T13:15:21.161Z,5.93
2023-02-25T13:16:21.122Z,5.87
2023-02-25T13:17:21.101Z,5.84
2023-02-25T13:18:21.070Z,5.82
2023-02-25T13:19:21.030Z,5.82
2023-02-25T13:20:20.999Z,5.79
2023-02-25T13:21:20.988Z,5.73
2023-02-25T13:22:20.960Z,5.8
2023-02-25T13:23:20.888Z,5.75